createdAt,value
2023-01-18T00:02:30.350Z,6.90
2023-01-18T00:05:19.656Z,8.10
2023-01-18T00:08:08.059Z,7.50
2023-01-18T00:11:03.425Z,6.63
2023-01-18T00:13:52.890Z,7.90
2023-01-18T00:16:41.071Z,8.00
2023-01-18T00:19:29.820Z,8.83
2023-01-18T00:22:18.220Z,7.73
2023-01-18T00:25:07.198Z,9.10
2023-01-18T00:27:57.757Z,8.43
2023-01-18T00:30:46.223Z,8.87
2023-01-18T00:33:34.505Z,9.40
2023-01-18T00:36:22.746Z,9.13
2023-01-18T00:39:12.933Z,8.83
2023-01-18T00:42:18.659Z,8.80
2023-01-18T00:45:09.405Z,9.77
2023-01-18T00:47:58.347Z,8.90
2023-01-18T00:50:46.522Z,9.60
2023-01-18T00:53:35.014Z,10.33
2023-01-18T00:56:24.144Z,8.67
2023-01-18T00:59:12.491Z,7.47
2023-01-18T01:02:02.430Z,9.37
2023-01-18T01:05:08.221Z,8.90
2023-01-18T01:07:56.695Z,6.93
2023-01-18T01:10:46.270Z,7.77
2023-01-18T01:13:51.952Z,8.70
2023-01-18T01:16:58.521Z,8.40
2023-01-18T01:20:05.360Z,10.57
2023-01-18T01:23:10.885Z,7.60
2023-01-18T01:26:05.222Z,6.80
2023-01-18T01:28:54.619Z,8.00
2023-01-18T01:31:42.994Z,9.67
2023-01-18T01:34:32.123Z,7.47
2023-01-18T01:37:21.876Z,7.00
2023-01-18T01:40:11.919Z,7.50
2023-01-18T01:43:00.173Z,8.30
2023-01-18T01:45:49.741Z,9.47
2023-01-18T01:48:38.327Z,7.47
2023-01-18T01:51:26.637Z,7.43
2023-01-18T01:54:21.241Z,7.27
2023-01-18T01:57:13.763Z,6.00
2023-01-18T02:00:04.987Z,6.63
2023-01-18T02:02:57.891Z,8.47
2023-01-18T02:05:49.563Z,7.03
2023-01-18T02:08:38.316Z,7.30
2023-01-18T02:11:28.070Z,6.90
2023-01-18T02:14:17.029Z,9.83
2023-01-18T02:17:16.537Z,5.63
2023-01-18T02:20:40.350Z,5.30
2023-01-18T02:23:47.603Z,8.00
2023-01-18T02:26:53.731Z,7.23
2023-01-18T02:30:05.467Z,8.00
2023-01-18T02:33:07.624Z,5.97
2023-01-18T02:35:58.466Z,5.97
2023-01-18T02:38:48.194Z,5.33
2023-01-18T02:42:00.800Z,5.13
2023-01-18T02:45:08.403Z,4.50
2023-01-18T02:47:57.120Z,5.03
2023-01-18T02:50:45.471Z,5.67
2023-01-18T02:53:38.577Z,5.13
2023-01-18T02:56:30.869Z,5.40
2023-01-18T02:59:23.204Z,5.53
2023-01-18T03:02:17.238Z,5.70
2023-01-18T03:05:09.946Z,5.17
2023-01-18T03:08:06.764Z,4.40
2023-01-18T03:11:01.183Z,6.43
2023-01-18T03:14:01.553Z,4.03
2023-01-18T03:16:59.698Z,5.30
2023-01-18T03:20:06.081Z,4.30
2023-01-18T03:23:19.212Z,4.77
2023-01-18T03:26:09.130Z,5.20
2023-01-18T03:29:17.536Z,4.87
2023-01-18T03:32:28.473Z,4.23
2023-01-18T03:35:19.889Z,4.93
2023-01-18T03:38:08.783Z,4.33
2023-01-18T03:40:58.217Z,3.57
2023-01-18T03:43:49.254Z,5.63
2023-01-18T03:46:38.033Z,3.43
2023-01-18T03:49:28.435Z,3.83
2023-01-18T03:52:23.479Z,3.67
2023-01-18T03:55:17.335Z,3.23
2023-01-18T03:58:09.479Z,3.40
2023-01-18T04:00:57.822Z,3.53
2023-01-18T04:03:46.129Z,3.17
2023-01-18T04:06:34.751Z,3.57
2023-01-18T04:09:24.253Z,4.00
2023-01-18T04:12:12.601Z,2.57
2023-01-18T04:15:01.211Z,2.50
2023-01-18T04:17:53.322Z,2.57
2023-01-18T04:20:41.672Z,2.90
2023-01-18T04:23:29.827Z,2.50
2023-01-18T04:26:19.486Z,2.50
2023-01-18T04:29:09.215Z,3.43
2023-01-18T04:31:57.906Z,2.80
2023-01-18T04:34:46.138Z,2.60
2023-01-18T04:37:34.613Z,2.53
2023-01-18T04:40:22.943Z,2.40
2023-01-18T04:43:12.674Z,2.80
2023-01-18T04:46:01.037Z,2.50
2023-01-18T04:48:51.786Z,2.40
2023-01-18T04:51:40.565Z,2.87
2023-01-18T04:54:29.377Z,2.80
2023-01-18T04:57:17.819Z,2.97
2023-01-18T05:00:09.440Z,2.33
2023-01-18T05:02:58.185Z,3.10
2023-01-18T05:05:46.701Z,2.60
2023-01-18T05:08:35.745Z,3.10
2023-01-18T05:11:24.311Z,3.03
2023-01-18T05:14:12.638Z,2.70
2023-01-18T05:17:02.503Z,2.73
2023-01-18T05:19:51.625Z,2.63
2023-01-18T05:22:39.906Z,2.23
2023-01-18T05:25:28.226Z,2.93
2023-01-18T05:28:16.547Z,2.60
2023-01-18T05:31:04.860Z,2.40
2023-01-18T05:33:54.525Z,2.57
2023-01-18T05:36:42.742Z,2.50
2023-01-18T05:39:32.080Z,3.90
2023-01-18T05:42:20.395Z,2.60
2023-01-18T05:45:10.594Z,2.23
2023-01-18T05:47:59.896Z,3.93
2023-01-18T05:50:50.394Z,2.60
2023-01-18T05:53:39.850Z,4.70
2023-01-18T05:56:28.115Z,2.57
2023-01-18T05:59:16.416Z,3.73
2023-01-18T06:02:05.452Z,2.67
2023-01-18T06:04:53.703Z,2.90
2023-01-18T06:07:43.721Z,2.27
2023-01-18T06:10:32.175Z,3.87
2023-01-18T06:13:20.583Z,3.33
2023-01-18T06:16:09.492Z,2.63
2023-01-18T06:18:57.952Z,3.83
2023-01-18T06:21:46.808Z,2.07
2023-01-18T06:24:36.441Z,2.80
2023-01-18T06:27:24.684Z,2.60
2023-01-18T06:30:13.465Z,7.03
2023-01-18T06:33:06.753Z,4.20
2023-01-18T06:35:55.290Z,4.73
2023-01-18T06:38:45.244Z,3.80
2023-01-18T06:41:35.007Z,3.00
2023-01-18T06:44:23.370Z,3.90
2023-01-18T06:47:11.680Z,2.40
2023-01-18T06:50:00.039Z,7.67
2023-01-18T06:52:48.415Z,4.30
2023-01-18T06:55:36.693Z,2.30
2023-01-18T06:58:27.601Z,2.63
2023-01-18T07:01:16.016Z,3.60
2023-01-18T07:04:05.931Z,2.67
2023-01-18T07:06:54.289Z,4.90
2023-01-18T07:09:42.540Z,3.07
2023-01-18T07:12:30.867Z,3.20
2023-01-18T07:15:22.229Z,2.73
2023-01-18T07:18:12.181Z,4.27
2023-01-18T07:21:02.540Z,2.83
2023-01-18T07:23:50.924Z,2.60
2023-01-18T07:26:39.189Z,4.40
2023-01-18T07:29:27.837Z,2.60
2023-01-18T07:32:17.527Z,3.55
2023-01-18T07:35:06.656Z,3.07
2023-01-18T07:37:55.265Z,2.77
2023-01-18T07:40:43.712Z,5.33
2023-01-18T07:43:33.537Z,2.20
2023-01-18T07:46:21.825Z,3.17
2023-01-18T07:49:11.708Z,2.97
2023-01-18T07:52:00.063Z,3.83
2023-01-18T07:54:48.399Z,5.57
2023-01-18T07:57:36.664Z,2.63
2023-01-18T08:00:25.976Z,2.30
2023-01-18T08:03:15.927Z,2.80
2023-01-18T08:06:07.794Z,4.87
2023-01-18T08:08:56.743Z,2.63
2023-01-18T08:11:45.115Z,2.70
2023-01-18T08:14:33.486Z,2.30
2023-01-18T08:17:22.259Z,2.57
2023-01-18T08:20:11.833Z,3.40
2023-01-18T08:23:02.606Z,3.13
2023-01-18T08:25:51.612Z,2.17
2023-01-18T08:28:41.487Z,2.83
2023-01-18T08:31:29.892Z,2.50
2023-01-18T08:34:18.224Z,2.30
2023-01-18T08:37:06.799Z,2.50
2023-01-18T08:39:56.518Z,2.97
2023-01-18T08:42:44.852Z,2.23
2023-01-18T08:45:35.036Z,2.40
2023-01-18T08:48:23.538Z,2.67
2023-01-18T08:51:12.153Z,3.73
2023-01-18T08:54:00.794Z,3.33
2023-01-18T08:56:50.459Z,5.30
2023-01-18T08:59:38.677Z,2.90
2023-01-18T09:02:27.323Z,2.40
2023-01-18T09:05:15.937Z,3.03
2023-01-18T09:08:04.324Z,2.47
2023-01-18T09:10:52.748Z,2.17
2023-01-18T09:13:59.493Z,3.67
2023-01-18T09:16:48.653Z,2.30
2023-01-18T09:19:37.200Z,2.07
2023-01-18T09:22:25.452Z,3.37
2023-01-18T09:25:14.575Z,2.40
2023-01-18T09:28:03.610Z,3.10
2023-01-18T09:30:54.208Z,3.83
2023-01-18T09:33:52.377Z,2.50
2023-01-18T09:36:41.780Z,4.40
2023-01-18T09:39:35.305Z,3.00
2023-01-18T09:42:36.221Z,3.03
2023-01-18T09:45:30.721Z,2.60
2023-01-18T09:48:30.620Z,4.97
2023-01-18T09:51:23.371Z,2.70
2023-01-18T09:54:23.313Z,3.10
2023-01-18T09:57:23.547Z,3.53
2023-01-18T10:00:22.355Z,3.03
2023-01-18T10:03:16.731Z,3.90
2023-01-18T10:06:15.652Z,2.93
2023-01-18T10:09:06.209Z,3.40
2023-01-18T10:11:59.767Z,5.33
2023-01-18T10:14:54.305Z,4.30
2023-01-18T10:17:43.888Z,3.33
2023-01-18T10:20:42.849Z,3.70
2023-01-18T10:23:35.783Z,3.03
2023-01-18T10:26:30.397Z,2.97
2023-01-18T10:29:31.490Z,3.73
2023-01-18T10:32:22.917Z,3.17
2023-01-18T10:35:19.569Z,4.00
2023-01-18T10:38:13.165Z,5.17
2023-01-18T10:41:04.383Z,3.40
2023-01-18T10:43:53.471Z,4.23
2023-01-18T10:46:41.813Z,4.53
2023-01-18T10:49:39.363Z,4.20
2023-01-18T10:52:29.740Z,2.80
2023-01-18T10:55:20.061Z,3.77
2023-01-18T10:58:15.448Z,3.47
2023-01-18T11:01:04.446Z,3.50
2023-01-18T11:03:55.799Z,2.90
2023-01-18T11:06:49.629Z,2.57
2023-01-18T11:09:43.287Z,2.80
2023-01-18T11:12:37.355Z,4.40
2023-01-18T11:15:31.850Z,4.20
2023-01-18T11:18:20.232Z,2.67
2023-01-18T11:21:12.393Z,4.53
2023-01-18T11:24:08.057Z,3.50
2023-01-18T11:27:00.251Z,2.20
2023-01-18T11:29:48.588Z,3.50
2023-01-18T11:32:41.202Z,2.43
2023-01-18T11:35:35.016Z,2.50
2023-01-18T11:38:28.824Z,3.87
2023-01-18T11:41:20.307Z,4.20
2023-01-18T11:44:15.662Z,2.73
2023-01-18T11:47:10.995Z,4.17
2023-01-18T11:50:21.389Z,4.40
2023-01-18T11:53:22.762Z,3.17
2023-01-18T11:56:15.321Z,2.40
2023-01-18T11:59:05.859Z,3.17
2023-01-18T12:02:25.423Z,4.33
2023-01-18T12:05:29.548Z,3.30
2023-01-18T12:08:49.355Z,4.65
2023-01-18T12:11:48.070Z,2.63
2023-01-18T12:14:50.275Z,2.67
2023-01-18T12:18:11.360Z,2.60
2023-01-18T12:21:09.503Z,3.70
2023-01-18T12:24:30.121Z,2.97
2023-01-18T12:27:27.129Z,2.20
2023-01-18T12:30:42.047Z,4.43
2023-01-18T12:33:43.640Z,3.03
2023-01-18T12:36:58.501Z,2.50
2023-01-18T12:39:59.329Z,2.93
2023-01-18T12:42:58.442Z,2.90
2023-01-18T12:45:53.151Z,2.83
2023-01-18T12:48:48.351Z,3.03
2023-01-18T12:51:40.140Z,2.70
2023-01-18T12:54:33.115Z,3.20
2023-01-18T12:57:22.412Z,2.90
2023-01-18T13:00:18.216Z,2.73
2023-01-18T13:03:12.836Z,2.73
2023-01-18T13:06:03.903Z,3.63
2023-01-18T13:08:57.987Z,3.03
2023-01-18T13:11:48.309Z,3.40
2023-01-18T13:14:42.398Z,3.40
2023-01-18T13:17:37.523Z,2.50
2023-01-18T13:20:38.209Z,2.30
2023-01-18T13:23:38.758Z,3.03
2023-01-18T13:26:30.850Z,3.17
2023-01-18T13:29:30.295Z,2.90
2023-01-18T13:32:32.236Z,5.00
2023-01-18T13:35:25.885Z,2.30
2023-01-18T13:38:19.588Z,3.23
2023-01-18T13:41:11.531Z,2.30
2023-01-18T13:44:03.002Z,2.40
2023-01-18T13:46:52.816Z,3.33
2023-01-18T13:49:47.314Z,3.20
2023-01-18T13:52:38.345Z,3.05
2023-01-18T13:55:31.332Z,2.33
2023-01-18T13:58:21.556Z,2.43
2023-01-18T14:01:23.204Z,2.47
2023-01-18T14:04:27.467Z,3.40
2023-01-18T14:07:24.027Z,2.13
2023-01-18T14:10:27.572Z,5.50
2023-01-18T14:13:17.771Z,2.60
2023-01-18T14:16:07.379Z,3.47
2023-01-18T14:18:59.603Z,2.90
2023-01-18T14:22:00.623Z,3.30
2023-01-18T14:25:02.526Z,2.50
2023-01-18T14:27:58.933Z,2.60
2023-01-18T14:30:48.766Z,2.33
2023-01-18T14:33:38.478Z,2.73
2023-01-18T14:36:28.702Z,3.40
2023-01-18T14:39:18.825Z,3.40
2023-01-18T14:42:07.546Z,2.53
2023-01-18T14:44:58.642Z,2.43
2023-01-18T14:47:48.454Z,2.13
2023-01-18T14:50:41.585Z,3.13
2023-01-18T14:53:33.451Z,3.90
2023-01-18T14:56:24.936Z,4.03
2023-01-18T14:59:22.308Z,2.40
2023-01-18T15:02:17.538Z,4.50
2023-01-18T15:05:13.152Z,2.40
2023-01-18T15:08:01.590Z,2.70
2023-01-18T15:10:50.132Z,2.73
2023-01-18T15:13:47.676Z,6.07
2023-01-18T15:16:36.452Z,2.50
2023-01-18T15:19:31.527Z,2.70
2023-01-18T15:22:21.455Z,3.20
2023-01-18T15:25:20.097Z,2.80
2023-01-18T15:28:23.277Z,3.00
2023-01-18T15:31:16.604Z,4.13
2023-01-18T15:34:05.056Z,3.00
2023-01-18T15:36:53.960Z,2.90
2023-01-18T15:39:50.214Z,3.50
2023-01-18T15:42:43.710Z,2.30
2023-01-18T15:45:33.800Z,5.20
2023-01-18T15:48:25.649Z,3.13
2023-01-18T15:51:14.025Z,2.90
2023-01-18T15:54:02.493Z,3.22
2023-01-18T15:56:51.014Z,3.03
2023-01-18T15:59:42.371Z,4.27
2023-01-18T16:02:31.994Z,2.83
2023-01-18T16:05:26.926Z,3.23
2023-01-18T16:08:20.223Z,2.80
2023-01-18T16:11:27.897Z,5.87
2023-01-18T16:14:27.789Z,3.27
2023-01-18T16:17:18.847Z,3.90
2023-01-18T16:20:16.934Z,2.77
2023-01-18T16:23:11.111Z,2.87
2023-01-18T16:26:04.061Z,3.00
2023-01-18T16:28:52.768Z,4.37
2023-01-18T16:31:43.824Z,3.30
2023-01-18T16:34:32.270Z,3.20
2023-01-18T16:37:21.073Z,7.20
2023-01-18T16:40:14.622Z,5.32
2023-01-18T16:43:05.624Z,3.43
2023-01-18T16:45:58.985Z,3.33
2023-01-18T16:48:47.661Z,3.03
2023-01-18T16:51:36.361Z,3.80
2023-01-18T16:54:25.046Z,3.83
2023-01-18T16:57:20.105Z,4.47
2023-01-18T17:00:16.821Z,3.90
2023-01-18T17:03:05.746Z,4.07
2023-01-18T17:05:54.506Z,4.10
2023-01-18T17:08:42.776Z,3.77
2023-01-18T17:11:31.272Z,4.50
2023-01-18T17:14:21.602Z,4.07
2023-01-18T17:17:10.805Z,5.77
2023-01-18T17:19:59.166Z,3.13
2023-01-18T17:22:47.896Z,3.70
2023-01-18T17:25:37.291Z,4.57
2023-01-18T17:28:26.796Z,4.10
2023-01-18T17:31:16.584Z,4.23
2023-01-18T17:34:04.861Z,3.43
2023-01-18T17:36:53.391Z,4.35
2023-01-18T17:39:50.097Z,6.60
2023-01-18T17:42:51.836Z,4.10
2023-01-18T17:45:42.230Z,4.70
2023-01-18T17:48:33.911Z,4.90
2023-01-18T17:51:22.788Z,4.30
2023-01-18T17:54:16.733Z,3.93
2023-01-18T17:57:09.451Z,4.50
2023-01-18T17:59:57.623Z,4.73
2023-01-18T18:02:46.681Z,4.73
2023-01-18T18:05:36.674Z,6.13
2023-01-18T18:08:25.056Z,5.67
2023-01-18T18:11:14.844Z,4.23
2023-01-18T18:14:03.303Z,5.10
2023-01-18T18:16:52.015Z,5.07
2023-01-18T18:19:40.560Z,4.77
2023-01-18T18:22:31.788Z,8.47
2023-01-18T18:25:20.401Z,5.07
2023-01-18T18:28:08.833Z,6.90
2023-01-18T18:30:57.811Z,5.67
2023-01-18T18:33:46.393Z,4.80
2023-01-18T18:36:34.840Z,5.60
2023-01-18T18:39:24.755Z,5.17
2023-01-18T18:42:13.409Z,5.80
2023-01-18T18:45:01.883Z,5.07
2023-01-18T18:47:50.178Z,5.60
2023-01-18T18:50:38.583Z,6.50
2023-01-18T18:53:37.413Z,7.13
2023-01-18T18:56:27.798Z,6.60
2023-01-18T18:59:16.450Z,7.07
2023-01-18T19:02:04.828Z,7.73
2023-01-18T19:04:53.767Z,6.03
2023-01-18T19:07:42.574Z,4.93
2023-01-18T19:10:31.373Z,4.30
2023-01-18T19:13:21.155Z,5.80
2023-01-18T19:16:09.894Z,6.53
2023-01-18T19:18:58.429Z,6.67
2023-01-18T19:21:49.240Z,6.63
2023-01-18T19:24:37.506Z,5.40
2023-01-18T19:27:26.249Z,7.30
2023-01-18T19:30:19.279Z,6.43
2023-01-18T19:33:08.039Z,6.47
2023-01-18T19:35:56.702Z,6.77
2023-01-18T19:38:49.314Z,5.60
2023-01-18T19:41:42.462Z,6.50
2023-01-18T19:44:30.772Z,8.10
2023-01-18T19:47:20.487Z,7.17
2023-01-18T19:50:09.516Z,6.30
2023-01-18T19:52:58.825Z,5.33
2023-01-18T19:55:49.185Z,6.83
2023-01-18T19:58:38.237Z,5.17
2023-01-18T20:01:36.418Z,5.93
2023-01-18T20:04:26.948Z,5.40
2023-01-18T20:07:16.415Z,4.37
2023-01-18T20:10:05.302Z,5.63
2023-01-18T20:12:54.222Z,6.13
2023-01-18T20:15:45.457Z,5.67
2023-01-18T20:18:35.625Z,4.47
2023-01-18T20:21:25.425Z,6.00
2023-01-18T20:24:14.246Z,6.50
2023-01-18T20:27:15.327Z,6.53
2023-01-18T20:30:04.834Z,4.67
2023-01-18T20:32:53.298Z,7.40
2023-01-18T20:35:41.559Z,6.10
2023-01-18T20:38:31.368Z,5.37
2023-01-18T20:41:19.837Z,11.70
2023-01-18T20:44:08.209Z,16.90
2023-01-18T20:46:57.450Z,12.83
2023-01-18T20:49:47.082Z,16.87
2023-01-18T20:52:35.590Z,17.63
2023-01-18T20:55:25.551Z,18.60
2023-01-18T20:58:13.932Z,14.20
2023-01-18T21:01:06.104Z,12.03
2023-01-18T21:03:57.643Z,14.23
2023-01-18T21:06:46.755Z,16.73
2023-01-18T21:09:35.111Z,15.17
2023-01-18T21:12:25.115Z,14.17
2023-01-18T21:15:13.685Z,16.00
2023-01-18T21:18:04.085Z,11.10
2023-01-18T21:20:53.642Z,13.10
2023-01-18T21:23:42.376Z,9.23
2023-01-18T21:26:30.870Z,11.40
2023-01-18T21:29:20.860Z,9.87
2023-01-18T21:32:09.282Z,9.20
2023-01-18T21:34:57.719Z,8.30
2023-01-18T21:37:47.048Z,10.40
2023-01-18T21:40:35.546Z,5.90
2023-01-18T21:43:41.356Z,8.45
2023-01-18T21:46:30.912Z,7.87
2023-01-18T21:49:52.055Z,8.10
2023-01-18T21:52:59.661Z,6.93
2023-01-18T21:55:48.254Z,9.17
2023-01-18T21:58:54.791Z,9.00
2023-01-18T22:01:47.809Z,8.73
2023-01-18T22:04:54.219Z,8.73
2023-01-18T22:07:42.767Z,8.00
2023-01-18T22:10:31.274Z,9.10
2023-01-18T22:13:19.537Z,9.53
2023-01-18T22:16:08.883Z,10.17
2023-01-18T22:18:58.848Z,9.50
2023-01-18T22:21:47.323Z,6.83
2023-01-18T22:24:35.782Z,8.37
2023-01-18T22:27:24.075Z,7.77
2023-01-18T22:30:13.939Z,8.87
2023-01-18T22:33:02.582Z,8.43
2023-01-18T22:35:58.374Z,8.80
2023-01-18T22:38:46.966Z,6.80
2023-01-18T22:41:35.419Z,6.97
2023-01-18T22:44:24.053Z,8.97
2023-01-18T22:47:12.393Z,7.53
2023-01-18T22:50:00.825Z,7.40
2023-01-18T22:52:50.629Z,7.70
2023-01-18T22:55:40.192Z,7.83
2023-01-18T22:58:28.613Z,6.53
2023-01-18T23:01:19.419Z,7.70
2023-01-18T23:04:07.994Z,6.40
2023-01-18T23:07:00.911Z,8.40
2023-01-18T23:09:51.427Z,5.50
2023-01-18T23:12:39.695Z,7.63
2023-01-18T23:15:45.210Z,6.93
2023-01-18T23:18:33.711Z,6.43
2023-01-18T23:21:21.968Z,7.20
2023-01-18T23:24:10.270Z,7.87
2023-01-18T23:26:59.849Z,6.17
2023-01-18T23:29:55.497Z,6.80
2023-01-18T23:32:43.910Z,8.60
2023-01-18T23:35:32.301Z,5.97
2023-01-18T23:38:20.969Z,5.10
2023-01-18T23:41:27.748Z,7.00
2023-01-18T23:44:34.787Z,6.07
2023-01-18T23:47:40.605Z,7.63
2023-01-18T23:50:46.186Z,5.77
2023-01-18T23:53:51.843Z,5.37
2023-01-18T23:56:40.194Z,5.80
2023-01-18T23:59:29.728Z,5.88
